This is the latest recevied weather packets stored in our database for station/object KN6ETB-1. If no packets are shown the sender has not sent any weather packets the latest 10 day(s).
| Time | Temp. | Humidity | Pressure | Rain* | Wind** | Luminosity | Snow |
|---|---|---|---|---|---|---|---|
| 1777593953 | 29.44° C | 43% | 1008.9 hPa | 0 mm | - | 343 W/m² | - |
| 1777593649 | 29.44° C | 43% | 1009 hPa | 0 mm | - | 357 W/m² | - |
| 1777593344 | 28.33° C | 48% | 1008.9 hPa | 0 mm | - | 384 W/m² | - |
| 1777593038 | 28.33° C | 47% | 1008.9 hPa | 0 mm | - | 383 W/m² | - |
| 1777592738 | 28.89° C | 48% | 1008.9 hPa | 0 mm | - | 410 W/m² | - |
| 1777592434 | 28.33° C | 47% | 1008.8 hPa | 0 mm | - | 421 W/m² | - |
| 1777592129 | 29.44° C | 45% | 1009 hPa | 0 mm | - | 420 W/m² | - |
| 1777591827 | 28.89° C | 46% | 1009 hPa | 0 mm | - | 402 W/m² | - |
| 1777591522 | 28.33° C | 46% | 1009.1 hPa | 0 mm | - | 402 W/m² | - |
| 1777591219 | 28.33° C | 45% | 1009.2 hPa | 0 mm | - | 452 W/m² | - |
| 1777590915 | 28.33° C | 46% | 1009.1 hPa | 0 mm | - | 486 W/m² | - |
| 1777590610 | 28.89° C | 44% | 1009.3 hPa | 0 mm | - | 487 W/m² | - |
| 1777590307 | 28.89° C | 45% | 1009.4 hPa | 0 mm | - | 494 W/m² | - |
| 1777590004 | 28.33° C | 45% | 1009.3 hPa | 0 mm | - | 520 W/m² | - |
| 1777589700 | 27.78° C | 47% | 1009.4 hPa | 0 mm | - | 513 W/m² | - |
| 1777589398 | 28.33° C | 46% | 1009.7 hPa | 0 mm | - | 498 W/m² | - |
| 1777589094 | 28.33° C | 47% | 1009.8 hPa | 0 mm | - | 312 W/m² | - |
| 1777588790 | 28.33° C | 46% | 1009.6 hPa | 0 mm | - | 470 W/m² | - |
| 1777588486 | 27.78° C | 48% | 1009.8 hPa | 0 mm | - | 568 W/m² | - |
| 1777588181 | 27.78° C | 47% | 1009.7 hPa | 0 mm | - | 553 W/m² | - |
| 1777587878 | 27.78° C | 47% | 1010.2 hPa | 0 mm | - | 531 W/m² | - |
| 1777587573 | 28.33° C | 46% | 1010 hPa | 0 mm | - | 557 W/m² | - |
| 1777587269 | 27.78° C | 47% | 1009.9 hPa | 0 mm | - | 586 W/m² | - |
| 1777586965 | 27.22° C | 48% | 1010.2 hPa | 0 mm | - | 606 W/m² | - |
| 1777586660 | 27.22° C | 48% | 1010.2 hPa | 0 mm | - | 619 W/m² | - |
* Rain latest hour (hover to see other rain measurements)
** Current wind speed in m/s (hover to see current wind gust speed)